Terminal Aerodrome Forecast
Issued by NWS

Home | Current Version | Previous Version | Text Only | Print | Product List | Glossary On
Versions: 1 2 3 4 5 6 7 8 9 10 11 12 13
000
FTUS45 KABQ 290527
TAFROW
TAF
KROW 290527Z 2906/3006 31011KT P6SM -SHRA BKN080
     FM290900 30010KT P6SM VCSH BKN100
     FM291200 34013G22KT P6SM -RA OVC050
     FM291400 35023G33KT 4SM RA OVC020
     FM292000 33017G27KT P6SM BKN050
     FM300100 VRB05KT P6SM SCT070=

USA.gov is the U.S. government's official web portal to all federal, state and local government web resources and services.